createdAt,value
2023-04-17T00:00:52.197Z,69.28
2023-04-17T00:02:54.020Z,69.78
2023-04-17T00:04:56.331Z,70.08
2023-04-17T00:07:00.691Z,69.85
2023-04-17T00:09:04.109Z,70.09
2023-04-17T00:11:08.811Z,70.03
2023-04-17T00:13:11.216Z,69.57
2023-04-17T00:15:14.403Z,69.70
2023-04-17T00:17:16.037Z,70.24
2023-04-17T00:19:19.686Z,70.47
2023-04-17T00:21:21.516Z,70.12
2023-04-17T00:23:23.391Z,70.17
2023-04-17T00:25:27.570Z,70.01
2023-04-17T00:27:29.327Z,70.21
2023-04-17T00:29:33.019Z,70.32
2023-04-17T00:31:36.089Z,70.16
2023-04-17T00:33:37.800Z,70.17
2023-04-17T00:35:39.486Z,70.72
2023-04-17T00:37:42.534Z,70.95
2023-04-17T00:39:44.268Z,70.60
2023-04-17T00:41:46.337Z,70.99
2023-04-17T00:43:48.006Z,70.10
2023-04-17T00:45:50.246Z,70.92
2023-04-17T00:47:54.186Z,70.78
2023-04-17T00:49:55.817Z,70.74
2023-04-17T00:51:58.598Z,71.02
2023-04-17T00:54:00.495Z,70.82
2023-04-17T00:56:05.396Z,70.40
2023-04-17T00:58:07.345Z,71.08
2023-04-17T01:00:09.787Z,70.92
2023-04-17T01:02:11.767Z,70.68
2023-04-17T01:04:15.002Z,70.93
2023-04-17T01:06:16.719Z,71.42
2023-04-17T01:08:19.109Z,70.90
2023-04-17T01:10:21.058Z,71.38
2023-04-17T01:12:25.273Z,71.41
2023-04-17T01:14:27.122Z,70.89
2023-04-17T01:16:28.875Z,71.21
2023-04-17T01:18:30.640Z,71.45
2023-04-17T01:20:34.267Z,70.94
2023-04-17T01:22:36.005Z,70.75
2023-04-17T01:24:39.073Z,70.77
2023-04-17T01:26:41.002Z,71.29
2023-04-17T01:28:42.655Z,71.12
2023-04-17T01:30:44.362Z,70.52
2023-04-17T01:32:46.220Z,70.27
2023-04-17T01:34:47.832Z,70.46
2023-04-17T01:36:50.561Z,70.83
2023-04-17T01:38:52.227Z,70.94
2023-04-17T01:40:55.386Z,70.34
2023-04-17T01:42:58.244Z,70.65
2023-04-17T01:45:01.716Z,71.05
2023-04-17T01:47:03.557Z,71.28
2023-04-17T01:49:05.466Z,71.43
2023-04-17T01:51:07.253Z,71.62
2023-04-17T01:53:09.025Z,71.13
2023-04-17T01:55:10.701Z,71.73
2023-04-17T01:57:13.677Z,71.91
2023-04-17T01:59:15.226Z,71.68
2023-04-17T02:01:16.804Z,71.20
2023-04-17T02:03:18.907Z,71.52
2023-04-17T02:05:20.850Z,71.21
2023-04-17T02:07:22.672Z,71.87
2023-04-17T02:09:27.349Z,71.88
2023-04-17T02:11:31.184Z,72.21
2023-04-17T02:13:34.169Z,71.78
2023-04-17T02:15:37.080Z,71.78
2023-04-17T02:17:40.152Z,71.50
2023-04-17T02:19:41.868Z,71.87
2023-04-17T02:21:43.584Z,71.24
2023-04-17T02:23:47.248Z,72.04
2023-04-17T02:25:49.007Z,71.66
2023-04-17T02:27:53.709Z,71.61
2023-04-17T02:29:56.826Z,71.32
2023-04-17T02:31:58.614Z,71.75
2023-04-17T02:34:02.245Z,71.56
2023-04-17T02:36:04.616Z,71.51
2023-04-17T02:38:07.325Z,71.66
2023-04-17T02:40:09.255Z,71.68
2023-04-17T02:42:15.107Z,71.11
2023-04-17T02:44:16.974Z,71.40
2023-04-17T02:46:20.085Z,71.42
2023-04-17T02:48:21.831Z,71.69
2023-04-17T02:50:25.515Z,71.42
2023-04-17T02:52:27.563Z,71.51
2023-04-17T02:54:29.129Z,71.32
2023-04-17T02:56:30.792Z,71.17
2023-04-17T02:58:32.404Z,70.92
2023-04-17T03:00:34.384Z,70.78
2023-04-17T03:02:37.471Z,70.29
2023-04-17T03:04:39.299Z,70.39
2023-04-17T03:06:40.997Z,69.49
2023-04-17T03:08:42.621Z,69.75
2023-04-17T03:10:44.344Z,69.54
2023-04-17T03:12:45.926Z,69.13
2023-04-17T03:14:47.613Z,68.72
2023-04-17T03:16:49.285Z,68.52
2023-04-17T03:18:52.321Z,68.78
2023-04-17T03:20:53.977Z,68.34
2023-04-17T03:22:55.689Z,68.61
2023-04-17T03:24:57.397Z,68.96
2023-04-17T03:26:59.757Z,68.80
2023-04-17T03:29:01.284Z,68.91
2023-04-17T03:31:02.859Z,68.53
2023-04-17T03:33:04.604Z,68.39
2023-04-17T03:35:08.250Z,68.09
2023-04-17T03:37:09.907Z,68.50
2023-04-17T03:39:11.679Z,68.11
2023-04-17T03:41:13.920Z,68.98
2023-04-17T03:43:15.569Z,68.34
2023-04-17T03:45:17.263Z,68.71
2023-04-17T03:47:18.932Z,69.18
2023-04-17T03:49:23.041Z,69.70
2023-04-17T03:51:26.546Z,69.50
2023-04-17T03:53:28.166Z,69.42
2023-04-17T03:55:29.803Z,69.79
2023-04-17T03:57:31.426Z,69.95
2023-04-17T03:59:33.531Z,69.35
2023-04-17T04:01:35.216Z,68.85
2023-04-17T04:03:37.437Z,69.00
2023-04-17T04:05:39.305Z,68.64
2023-04-17T04:07:42.245Z,68.51
2023-04-17T04:09:43.811Z,68.10
2023-04-17T04:11:45.441Z,68.03
2023-04-17T04:13:47.018Z,68.52
2023-04-17T04:15:48.784Z,68.10
2023-04-17T04:17:50.566Z,68.23
2023-04-17T04:19:54.839Z,68.01
2023-04-17T04:21:58.406Z,67.97
2023-04-17T04:24:01.536Z,67.84
2023-04-17T04:26:03.169Z,67.91
2023-04-17T04:28:05.221Z,68.59
2023-04-17T04:30:08.245Z,68.60
2023-04-17T04:32:10.078Z,68.91
2023-04-17T04:34:11.711Z,68.54
2023-04-17T04:36:13.549Z,68.54
2023-04-17T04:38:15.430Z,68.16
2023-04-17T04:40:18.595Z,68.26
2023-04-17T04:42:20.155Z,68.55
2023-04-17T04:44:22.162Z,68.91
2023-04-17T04:46:23.887Z,68.63
2023-04-17T04:48:25.421Z,68.88
2023-04-17T04:50:27.064Z,68.54
2023-04-17T04:52:28.809Z,68.70
2023-04-17T04:54:30.940Z,69.46
2023-04-17T04:56:33.849Z,69.13
2023-04-17T04:58:35.503Z,69.25
2023-04-17T05:00:37.316Z,69.01
2023-04-17T05:02:39.083Z,69.35
2023-04-17T05:04:41.077Z,68.76
2023-04-17T05:06:42.870Z,69.13
2023-04-17T05:08:45.734Z,69.15
2023-04-17T05:10:49.174Z,68.85
2023-04-17T05:12:52.567Z,68.08
2023-04-17T05:14:54.283Z,68.86
2023-04-17T05:16:56.037Z,68.60
2023-04-17T05:18:57.690Z,69.16
2023-04-17T05:20:59.314Z,68.99
2023-04-17T05:23:01.174Z,68.50
2023-04-17T05:25:03.023Z,68.61
2023-04-17T05:27:04.880Z,68.29
2023-04-17T05:29:07.903Z,68.13
2023-04-17T05:31:09.878Z,68.26
2023-04-17T05:33:13.738Z,68.67
2023-04-17T05:35:15.425Z,68.85
2023-04-17T05:37:18.249Z,68.40
2023-04-17T05:39:22.596Z,69.20
2023-04-17T05:41:24.236Z,69.72
2023-04-17T05:43:25.908Z,69.20
2023-04-17T05:45:34.849Z,69.87
2023-04-17T05:47:36.515Z,69.51
2023-04-17T05:49:38.122Z,69.09
2023-04-17T05:51:39.725Z,69.81
2023-04-17T05:53:41.394Z,70.31
2023-04-17T05:55:44.197Z,69.65
2023-04-17T05:57:45.812Z,69.77
2023-04-17T05:59:47.410Z,70.25
2023-04-17T06:01:50.568Z,70.39
2023-04-17T06:03:52.422Z,69.32
2023-04-17T06:05:54.247Z,69.41
2023-04-17T06:07:56.046Z,69.51
2023-04-17T06:09:57.728Z,69.52
2023-04-17T06:11:59.843Z,69.31
2023-04-17T06:14:01.724Z,69.25
2023-04-17T06:16:03.355Z,69.52
2023-04-17T06:18:06.778Z,68.96
2023-04-17T06:20:09.617Z,69.19
2023-04-17T06:22:13.339Z,68.74
2023-04-17T06:24:17.125Z,68.68
2023-04-17T06:26:21.238Z,68.00
2023-04-17T06:28:24.865Z,68.79
2023-04-17T06:30:26.568Z,68.38
2023-04-17T06:32:30.237Z,68.04
2023-04-17T06:34:33.256Z,68.23
2023-04-17T06:36:35.122Z,67.75
2023-04-17T06:38:36.774Z,68.04
2023-04-17T06:40:38.541Z,67.74
2023-04-17T06:42:40.341Z,67.14
2023-04-17T06:44:42.122Z,67.54
2023-04-17T06:46:43.759Z,67.64
2023-04-17T06:48:45.640Z,67.35
2023-04-17T06:50:49.027Z,66.95
2023-04-17T06:52:50.745Z,66.51
2023-04-17T06:54:54.372Z,67.11
2023-04-17T06:56:56.068Z,67.02
2023-04-17T06:58:57.873Z,66.88
2023-04-17T07:00:59.510Z,67.65
2023-04-17T07:03:03.362Z,67.26
2023-04-17T07:05:06.452Z,67.47
2023-04-17T07:07:11.461Z,67.34
2023-04-17T07:09:13.314Z,67.97
2023-04-17T07:11:15.691Z,68.40
2023-04-17T07:13:19.271Z,68.31
2023-04-17T07:15:21.020Z,68.44
2023-04-17T07:17:22.718Z,68.93
2023-04-17T07:19:24.458Z,69.19
2023-04-17T07:21:25.984Z,68.61
2023-04-17T07:23:28.960Z,69.18
2023-04-17T07:25:31.990Z,68.79
2023-04-17T07:27:43.753Z,69.22
2023-04-17T07:29:45.366Z,69.00
2023-04-17T07:31:46.987Z,68.68
2023-04-17T07:33:48.725Z,69.33
2023-04-17T07:35:50.365Z,69.47
2023-04-17T07:37:54.442Z,69.29
2023-04-17T07:39:59.804Z,69.02
2023-04-17T07:42:01.454Z,69.30
2023-04-17T07:44:03.215Z,69.05
2023-04-17T07:46:05.457Z,69.69
2023-04-17T07:48:07.137Z,69.29
2023-04-17T07:53:23.374Z,69.77
2023-04-17T07:55:26.916Z,70.03
2023-04-17T07:57:28.892Z,69.83
2023-04-17T07:59:30.830Z,69.80
2023-04-17T08:01:32.533Z,68.97
2023-04-17T08:03:34.513Z,68.35
2023-04-17T08:05:36.519Z,69.36
2023-04-17T08:07:38.260Z,69.17
2023-04-17T08:09:41.534Z,68.81
2023-04-17T08:11:56.315Z,69.04
2023-04-17T08:13:58.908Z,68.97
2023-04-17T08:16:00.525Z,68.90
2023-04-17T08:18:02.360Z,68.59
2023-04-17T08:20:04.886Z,69.62
2023-04-17T08:22:06.506Z,68.76
2023-04-17T08:24:08.306Z,68.34
2023-04-17T08:26:11.388Z,68.57
2023-04-17T08:28:14.368Z,69.30
2023-04-17T08:30:19.336Z,68.80
2023-04-17T08:32:21.416Z,68.79
2023-04-17T08:34:23.178Z,68.33
2023-04-17T08:36:25.055Z,67.74
2023-04-17T08:38:26.702Z,67.71
2023-04-17T08:40:28.423Z,68.28
2023-04-17T08:42:31.590Z,68.08
2023-04-17T08:44:35.035Z,68.81
2023-04-17T08:46:40.995Z,68.34
2023-04-17T08:48:45.556Z,68.54
2023-04-17T08:50:51.777Z,69.20
2023-04-17T08:52:53.350Z,69.29
2023-04-17T08:54:55.178Z,68.86
2023-04-17T08:56:56.975Z,69.72
2023-04-17T08:59:00.756Z,68.54
2023-04-17T09:01:10.732Z,68.30
2023-04-17T09:03:16.980Z,68.61
2023-04-17T09:05:19.809Z,68.43
2023-04-17T09:07:35.303Z,68.19
2023-04-17T09:09:47.303Z,68.00
2023-04-17T09:12:09.966Z,67.34
2023-04-17T09:14:29.420Z,66.96
2023-04-17T09:16:32.512Z,66.22
2023-04-17T09:18:36.167Z,66.50
2023-04-17T09:20:48.770Z,65.92
2023-04-17T09:22:59.417Z,65.72
2023-04-17T09:25:01.537Z,65.69
2023-04-17T09:27:21.255Z,65.29
2023-04-17T09:29:22.911Z,64.62
2023-04-17T09:31:26.846Z,63.45
2023-04-17T09:33:29.895Z,64.00
2023-04-17T09:35:31.958Z,64.01
2023-04-17T09:37:49.214Z,64.58
2023-04-17T09:39:58.317Z,64.23
2023-04-17T09:42:03.758Z,63.77
2023-04-17T09:44:06.192Z,63.65
2023-04-17T09:46:09.011Z,63.69
2023-04-17T09:48:12.449Z,62.85
2023-04-17T09:50:18.413Z,63.72
2023-04-17T09:52:21.274Z,63.49
2023-04-17T09:54:23.485Z,63.09
2023-04-17T09:56:25.658Z,62.58
2023-04-17T09:58:30.048Z,62.19
2023-04-17T10:00:31.847Z,62.20
2023-04-17T10:02:34.139Z,62.23
2023-04-17T10:04:39.394Z,62.16
2023-04-17T10:06:42.909Z,62.94
2023-04-17T10:08:44.552Z,62.25
2023-04-17T10:10:46.960Z,62.37
2023-04-17T10:12:50.632Z,63.31
2023-04-17T10:14:52.662Z,62.52
2023-04-17T10:16:54.497Z,62.24
2023-04-17T10:19:30.104Z,63.45
2023-04-17T10:21:31.738Z,62.29
2023-04-17T10:23:35.347Z,62.38
2023-04-17T10:25:37.154Z,61.97
2023-04-17T10:27:50.527Z,62.22
2023-04-17T10:29:55.175Z,61.90
2023-04-17T10:32:15.933Z,62.62
2023-04-17T10:34:36.230Z,62.34
2023-04-17T10:36:52.846Z,62.74
2023-04-17T10:39:13.366Z,62.75
2023-04-17T10:41:19.628Z,61.38
2023-04-17T10:43:21.243Z,61.12
2023-04-17T10:45:57.779Z,62.33
2023-04-17T10:47:59.637Z,61.08
2023-04-17T10:50:03.336Z,60.85
2023-04-17T10:52:06.954Z,61.06
2023-04-17T10:54:10.349Z,61.03
2023-04-17T10:56:17.643Z,60.48
2023-04-17T10:58:19.284Z,60.89
2023-04-17T11:00:29.738Z,61.23
2023-04-17T11:02:33.954Z,61.14
2023-04-17T11:04:35.957Z,60.33
2023-04-17T11:06:39.650Z,60.73
2023-04-17T11:08:42.296Z,59.87
2023-04-17T11:10:45.971Z,60.45
2023-04-17T11:12:48.244Z,59.70
2023-04-17T11:14:49.977Z,59.27
2023-04-17T11:16:52.341Z,59.74
2023-04-17T11:18:53.933Z,60.40
2023-04-17T11:20:56.588Z,59.56
2023-04-17T11:23:01.218Z,60.00
2023-04-17T11:25:02.886Z,59.61
2023-04-17T11:27:07.036Z,60.28
2023-04-17T11:29:14.182Z,60.52
2023-04-17T11:31:18.615Z,60.82
2023-04-17T11:33:21.459Z,60.63
2023-04-17T11:35:27.731Z,60.38
2023-04-17T11:37:30.637Z,60.44
2023-04-17T11:39:34.216Z,60.48
2023-04-17T11:41:36.662Z,60.53
2023-04-17T11:43:40.056Z,60.55
2023-04-17T11:45:43.981Z,60.48
2023-04-17T11:47:47.396Z,60.62
2023-04-17T11:49:49.109Z,60.54
2023-04-17T11:51:51.040Z,60.34
2023-04-17T11:53:54.241Z,60.41
2023-04-17T11:56:11.067Z,61.53
2023-04-17T11:58:14.177Z,60.35
2023-04-17T12:00:18.602Z,60.08
2023-04-17T12:02:35.091Z,60.49
2023-04-17T12:04:40.092Z,60.06
2023-04-17T12:06:42.306Z,59.48
2023-04-17T12:08:46.512Z,59.30
2023-04-17T12:10:48.383Z,59.39
2023-04-17T12:12:51.664Z,59.39
2023-04-17T12:14:53.489Z,59.59
2023-04-17T12:16:56.572Z,59.26
2023-04-17T12:19:00.792Z,58.66
2023-04-17T12:21:02.852Z,58.51
2023-04-17T12:23:06.623Z,58.82
2023-04-17T12:25:09.225Z,58.52
2023-04-17T12:27:12.822Z,58.67
2023-04-17T12:29:14.601Z,58.85
2023-04-17T12:31:16.431Z,58.70
2023-04-17T12:33:19.530Z,58.54
2023-04-17T12:35:27.739Z,59.27
2023-04-17T12:37:29.502Z,57.60
2023-04-17T12:39:31.343Z,57.77
2023-04-17T12:41:33.100Z,58.21
2023-04-17T12:43:36.050Z,57.41
2023-04-17T12:45:39.873Z,57.31
2023-04-17T12:47:44.021Z,57.36
2023-04-17T12:49:47.088Z,57.82
2023-04-17T12:51:49.116Z,57.76
2023-04-17T12:53:51.092Z,58.65
2023-04-17T12:55:54.073Z,57.74
2023-04-17T12:57:55.891Z,58.03
2023-04-17T12:59:57.949Z,57.60
2023-04-17T13:01:59.841Z,57.85
2023-04-17T13:04:02.874Z,58.05
2023-04-17T13:06:06.759Z,57.88
2023-04-17T13:08:09.834Z,57.89
2023-04-17T13:10:11.650Z,58.23
2023-04-17T13:12:15.459Z,58.62
2023-04-17T13:14:22.836Z,58.82
2023-04-17T13:16:24.634Z,58.27
2023-04-17T13:18:26.591Z,58.51
2023-04-17T13:20:28.391Z,59.05
2023-04-17T13:22:31.380Z,58.28
2023-04-17T13:24:33.486Z,58.90
2023-04-17T13:26:38.470Z,59.22
2023-04-17T13:28:42.254Z,59.15
2023-04-17T13:30:45.727Z,59.38
2023-04-17T13:32:47.456Z,59.18
2023-04-17T13:34:49.153Z,59.23
2023-04-17T13:36:50.708Z,59.30
2023-04-17T13:38:53.780Z,60.01
2023-04-17T13:40:56.758Z,59.70
2023-04-17T13:42:58.611Z,59.33
2023-04-17T13:45:00.513Z,59.10
2023-04-17T13:47:02.223Z,59.50
2023-04-17T13:49:03.805Z,59.58
2023-04-17T13:51:05.462Z,60.05
2023-04-17T13:53:08.520Z,59.51
2023-04-17T13:55:13.248Z,59.82
2023-04-17T13:57:15.021Z,59.86
2023-04-17T13:59:16.662Z,59.23
2023-04-17T14:01:19.723Z,59.56
2023-04-17T14:03:23.512Z,59.75
2023-04-17T14:05:25.187Z,59.24
2023-04-17T14:07:27.161Z,59.51
2023-04-17T14:09:28.822Z,59.84
2023-04-17T14:11:31.824Z,59.65
2023-04-17T14:13:35.279Z,59.60
2023-04-17T14:15:40.203Z,59.67
2023-04-17T14:17:42.478Z,60.55
2023-04-17T14:19:46.200Z,60.58
2023-04-17T14:21:47.864Z,60.49
2023-04-17T14:23:49.430Z,60.26
2023-04-17T14:25:53.219Z,60.20
2023-04-17T14:27:56.376Z,60.41
2023-04-17T14:30:01.474Z,61.38
2023-04-17T14:32:03.506Z,60.82
2023-04-17T14:34:05.113Z,60.84
2023-04-17T14:36:09.938Z,60.74
2023-04-17T14:38:12.310Z,60.75
2023-04-17T14:40:14.149Z,60.46
2023-04-17T14:42:15.705Z,60.19
2023-04-17T14:44:18.687Z,61.14
2023-04-17T14:46:21.453Z,60.05
2023-04-17T14:48:29.151Z,60.54
2023-04-17T14:50:30.886Z,60.57
2023-04-17T14:52:35.546Z,60.15
2023-04-17T14:54:37.234Z,60.20
2023-04-17T14:56:39.597Z,60.52
2023-04-17T14:58:41.162Z,60.58
2023-04-17T15:00:44.173Z,60.78
2023-04-17T15:02:47.726Z,61.19
2023-04-17T15:04:50.790Z,60.52
2023-04-17T15:06:52.350Z,60.42
2023-04-17T15:08:56.453Z,60.67
2023-04-17T15:10:58.340Z,61.00
2023-04-17T15:13:00.148Z,60.71
2023-04-17T15:15:01.862Z,60.96
2023-04-17T15:17:05.074Z,61.15
2023-04-17T15:19:06.772Z,61.85
2023-04-17T15:21:08.675Z,60.86
2023-04-17T15:23:10.455Z,61.44
2023-04-17T15:25:12.243Z,61.42
2023-04-17T15:27:13.836Z,61.43
2023-04-17T15:29:15.504Z,61.25
2023-04-17T15:31:17.161Z,62.25
2023-04-17T15:33:20.112Z,61.35
2023-04-17T15:35:21.624Z,61.52
2023-04-17T15:37:23.113Z,61.38
2023-04-17T15:39:24.767Z,60.99
2023-04-17T15:41:26.624Z,61.17
2023-04-17T15:43:28.299Z,61.96
2023-04-17T15:45:31.101Z,62.34
2023-04-17T15:47:32.992Z,62.20
2023-04-17T15:49:37.783Z,62.42
2023-04-17T15:51:41.832Z,61.96
2023-04-17T15:53:43.394Z,62.00
2023-04-17T15:55:46.861Z,61.51
2023-04-17T15:57:48.525Z,62.06
2023-04-17T15:59:50.103Z,62.28
2023-04-17T16:01:51.900Z,62.14
2023-04-17T16:03:53.980Z,62.09
2023-04-17T16:05:59.149Z,62.56
2023-04-17T16:08:02.515Z,62.15
2023-04-17T16:10:07.706Z,63.40
2023-04-17T16:12:10.169Z,62.69
2023-04-17T16:14:11.840Z,62.62
2023-04-17T16:16:14.882Z,62.80
2023-04-17T16:18:20.157Z,62.59
2023-04-17T16:20:22.182Z,62.15
2023-04-17T16:22:25.154Z,62.75
2023-04-17T16:24:29.794Z,62.96
2023-04-17T16:26:31.414Z,62.40
2023-04-17T16:28:33.417Z,62.59
2023-04-17T16:30:35.046Z,62.14
2023-04-17T16:32:36.741Z,62.80
2023-04-17T16:34:39.723Z,62.45
2023-04-17T16:36:45.156Z,62.07
2023-04-17T16:38:48.606Z,62.45
2023-04-17T16:40:50.136Z,62.15
2023-04-17T16:42:53.179Z,62.29
2023-04-17T16:44:54.827Z,62.33
2023-04-17T16:47:12.045Z,63.23
2023-04-17T16:49:15.063Z,62.77
2023-04-17T16:51:17.089Z,63.30
2023-04-17T16:53:18.795Z,63.25
2023-04-17T16:55:23.817Z,62.79
2023-04-17T16:57:25.420Z,63.58
2023-04-17T16:59:26.939Z,63.46
2023-04-17T17:01:28.778Z,63.53
2023-04-17T17:03:30.743Z,64.26
2023-04-17T17:05:32.412Z,64.22
2023-04-17T17:07:36.439Z,64.58
2023-04-17T17:09:38.307Z,64.83
2023-04-17T17:11:43.108Z,65.11
2023-04-17T17:13:47.880Z,65.20
2023-04-17T17:15:49.458Z,64.82
2023-04-17T17:17:51.075Z,65.09
2023-04-17T17:19:52.936Z,65.24
2023-04-17T17:21:56.684Z,65.52
2023-04-17T17:23:58.734Z,65.77
2023-04-17T17:26:00.700Z,66.60
2023-04-17T17:28:03.692Z,66.06
2023-04-17T17:30:06.539Z,66.38
2023-04-17T17:32:08.221Z,65.97
2023-04-17T17:34:25.525Z,65.93
2023-04-17T17:36:28.621Z,67.12
2023-04-17T17:38:30.303Z,66.25
2023-04-17T17:40:31.937Z,66.64
2023-04-17T17:42:34.072Z,66.61
2023-04-17T17:44:37.221Z,66.29
2023-04-17T17:46:39.018Z,66.91
2023-04-17T17:48:40.681Z,67.36
2023-04-17T17:50:42.563Z,67.09
2023-04-17T17:52:44.279Z,66.75
2023-04-17T17:54:45.928Z,67.35
2023-04-17T17:56:47.632Z,67.23
2023-04-17T17:58:49.735Z,67.43
2023-04-17T18:00:58.513Z,67.38
2023-04-17T18:03:00.804Z,67.82
2023-04-17T18:05:03.103Z,67.86
2023-04-17T18:07:04.833Z,68.20
2023-04-17T18:09:06.501Z,68.06
2023-04-17T18:11:08.081Z,68.15
2023-04-17T18:13:09.918Z,67.29
2023-04-17T18:15:13.400Z,67.80
2023-04-17T18:17:19.093Z,68.16
2023-04-17T18:19:22.873Z,68.51
2023-04-17T18:21:24.489Z,68.32
2023-04-17T18:23:26.237Z,68.76
2023-04-17T18:25:28.404Z,68.44
2023-04-17T18:27:30.175Z,69.34
2023-04-17T18:29:33.151Z,69.27
2023-04-17T18:31:34.820Z,70.00
2023-04-17T18:33:37.934Z,69.70
2023-04-17T18:35:39.579Z,70.14
2023-04-17T18:37:41.179Z,69.68
2023-04-17T18:39:42.979Z,69.52
2023-04-17T18:41:46.877Z,69.94
2023-04-17T18:43:50.218Z,69.21
2023-04-17T18:45:52.241Z,70.08
2023-04-17T18:47:53.840Z,69.97
2023-04-17T18:49:56.917Z,69.44
2023-04-17T18:51:58.894Z,69.65
2023-04-17T18:54:00.539Z,70.11
2023-04-17T18:56:02.139Z,69.84
2023-04-17T18:58:04.149Z,70.51
2023-04-17T19:00:06.931Z,70.05
2023-04-17T19:02:08.590Z,70.61
2023-04-17T19:04:10.322Z,70.15
2023-04-17T19:06:13.394Z,71.03
2023-04-17T19:08:15.118Z,70.92
2023-04-17T19:10:16.835Z,70.52
2023-04-17T19:12:21.043Z,71.03
2023-04-17T19:14:24.858Z,71.54
2023-04-17T19:16:26.808Z,71.46
2023-04-17T19:18:30.498Z,71.39
2023-04-17T19:20:34.072Z,71.56
2023-04-17T19:22:36.940Z,71.23
2023-04-17T19:24:38.551Z,72.01
2023-04-17T19:26:40.176Z,71.51
2023-04-17T19:28:41.718Z,71.34
2023-04-17T19:30:47.821Z,71.99
2023-04-17T19:32:51.205Z,71.55
2023-04-17T19:34:54.515Z,71.96
2023-04-17T19:36:56.416Z,71.93
2023-04-17T19:38:59.422Z,71.58
2023-04-17T19:41:12.394Z,70.98
2023-04-17T19:43:14.134Z,72.23
2023-04-17T19:45:15.801Z,72.35
2023-04-17T19:47:17.491Z,71.83
2023-04-17T19:49:19.103Z,72.19
2023-04-17T19:51:20.825Z,72.86
2023-04-17T19:53:22.340Z,71.91
2023-04-17T19:55:25.327Z,72.21
2023-04-17T19:57:27.062Z,71.94
2023-04-17T19:59:28.708Z,72.55
2023-04-17T20:01:31.223Z,72.87
2023-04-17T20:03:33.253Z,72.38
2023-04-17T20:05:35.110Z,72.52
2023-04-17T20:07:37.009Z,71.96
2023-04-17T20:09:38.631Z,72.27
2023-04-17T20:11:41.611Z,72.42
2023-04-17T20:13:43.428Z,72.27
2023-04-17T20:15:45.093Z,72.03
2023-04-17T20:17:46.666Z,72.51
2023-04-17T20:19:48.223Z,72.21
2023-04-17T20:21:49.786Z,72.28
2023-04-17T20:23:51.379Z,72.18
2023-04-17T20:25:53.221Z,72.42
2023-04-17T20:27:56.424Z,72.85
2023-04-17T20:29:58.237Z,72.21
2023-04-17T20:32:01.849Z,72.88
2023-04-17T20:34:05.168Z,72.21
2023-04-17T20:36:06.911Z,72.61
2023-04-17T20:38:08.458Z,72.62
2023-04-17T20:40:11.038Z,73.06
2023-04-17T20:42:12.806Z,72.75
2023-04-17T20:44:15.721Z,73.09
2023-04-17T20:46:17.407Z,73.27
2023-04-17T20:48:19.185Z,73.15
2023-04-17T20:50:21.030Z,72.91
2023-04-17T20:52:22.793Z,72.94
2023-04-17T20:54:24.694Z,73.23
2023-04-17T20:56:26.361Z,72.57
2023-04-17T20:58:28.018Z,73.33
2023-04-17T21:00:33.092Z,73.01
2023-04-17T21:02:39.266Z,73.02
2023-04-17T21:04:40.861Z,73.04
2023-04-17T21:06:42.704Z,73.48
2023-04-17T21:08:46.134Z,72.39
2023-04-17T21:10:49.581Z,72.59
2023-04-17T21:12:52.432Z,72.04
2023-04-17T21:14:54.128Z,72.40
2023-04-17T21:16:57.053Z,72.26
2023-04-17T21:18:58.620Z,71.62
2023-04-17T21:21:00.285Z,71.50
2023-04-17T21:23:01.937Z,71.03
2023-04-17T21:25:04.016Z,70.45
2023-04-17T21:27:06.161Z,70.40
2023-04-17T21:29:07.984Z,69.77
2023-04-17T21:31:13.949Z,69.50
2023-04-17T21:33:16.933Z,69.60
2023-04-17T21:35:18.554Z,69.55
2023-04-17T21:37:20.205Z,69.60
2023-04-17T21:39:22.283Z,69.43
2023-04-17T21:41:23.919Z,69.31
2023-04-17T21:43:25.772Z,69.33
2023-04-17T21:45:27.676Z,68.69
2023-04-17T21:47:29.315Z,68.62
2023-04-17T21:49:32.273Z,69.05
2023-04-17T21:51:34.073Z,68.94
2023-04-17T21:53:36.696Z,68.87
2023-04-17T21:55:38.662Z,68.43
2023-04-17T21:57:40.542Z,68.71
2023-04-17T21:59:42.076Z,69.14
2023-04-17T22:01:43.897Z,69.21
2023-04-17T22:03:45.482Z,69.28
2023-04-17T22:05:49.583Z,69.26
2023-04-17T22:07:55.055Z,69.11
2023-04-17T22:09:57.109Z,68.98
2023-04-17T22:11:58.791Z,69.47
2023-04-17T22:14:00.383Z,69.10
2023-04-17T22:16:02.503Z,69.11
2023-04-17T22:18:04.478Z,69.60
2023-04-17T22:20:07.610Z,69.36
2023-04-17T22:22:10.568Z,69.61
2023-04-17T22:24:12.578Z,69.97
2023-04-17T22:26:14.306Z,69.54
2023-04-17T22:28:15.827Z,70.34
2023-04-17T22:30:17.420Z,69.92
2023-04-17T22:32:18.993Z,70.47
2023-04-17T22:34:20.898Z,69.95
2023-04-17T22:36:22.946Z,70.15
2023-04-17T22:38:26.297Z,70.82
2023-04-17T22:40:27.880Z,70.49
2023-04-17T22:42:29.440Z,70.69
2023-04-17T22:44:31.006Z,70.34
2023-04-17T22:46:32.685Z,70.76
2023-04-17T22:48:34.412Z,70.84
2023-04-17T22:50:36.710Z,70.68
2023-04-17T22:52:40.280Z,71.04
2023-04-17T22:54:43.237Z,71.18
2023-04-17T22:56:44.825Z,70.68
2023-04-17T22:58:46.456Z,71.30
2023-04-17T23:00:48.132Z,70.69
2023-04-17T23:02:49.933Z,71.16
2023-04-17T23:04:51.672Z,71.31
2023-04-17T23:06:53.242Z,71.45
2023-04-17T23:08:54.741Z,71.65
2023-04-17T23:10:58.499Z,71.70
2023-04-17T23:13:00.138Z,70.92
2023-04-17T23:15:01.748Z,71.66
2023-04-17T23:17:03.769Z,71.58
2023-04-17T23:19:05.540Z,71.41
2023-04-17T23:21:07.575Z,72.24
2023-04-17T23:23:13.858Z,72.25
2023-04-17T23:25:16.701Z,72.03
2023-04-17T23:27:20.197Z,71.83
2023-04-17T23:29:21.864Z,71.95
2023-04-17T23:31:23.536Z,71.86
2023-04-17T23:33:25.151Z,72.25
2023-04-17T23:35:26.695Z,71.89
2023-04-17T23:37:28.357Z,72.37
2023-04-17T23:39:29.923Z,71.83
2023-04-17T23:41:31.555Z,72.57
2023-04-17T23:43:34.397Z,72.67
2023-04-17T23:45:36.113Z,72.48
2023-04-17T23:47:38.216Z,72.33
2023-04-17T23:49:41.525Z,72.78
2023-04-17T23:51:43.386Z,73.01
2023-04-17T23:53:48.657Z,72.75
2023-04-17T23:55:53.150Z,72.50
2023-04-17T23:57:55.624Z,73.00
2023-04-17T23:59:58.534Z,72.72
